createdAt,value
2018-08-17T00:01:59.329Z,5.90
2018-08-17T00:04:27.383Z,6.00
2018-08-17T00:06:55.459Z,6.17
2018-08-17T00:09:23.518Z,6.70
2018-08-17T00:11:51.583Z,8.17
2018-08-17T00:14:19.659Z,6.23
2018-08-17T00:16:47.987Z,5.37
2018-08-17T00:19:16.088Z,6.17
2018-08-17T00:21:44.158Z,6.00
2018-08-17T00:24:12.245Z,7.20
2018-08-17T00:26:40.316Z,5.07
2018-08-17T00:29:08.387Z,6.07
2018-08-17T00:31:36.471Z,6.37
2018-08-17T00:34:04.535Z,5.23
2018-08-17T00:36:32.603Z,7.07
2018-08-17T00:39:00.695Z,7.07
2018-08-17T00:41:28.969Z,5.50
2018-08-17T00:43:57.074Z,8.63
2018-08-17T00:46:25.146Z,6.73
2018-08-17T00:48:53.224Z,6.53
2018-08-17T00:51:21.278Z,7.37
2018-08-17T00:53:49.351Z,6.47
2018-08-17T00:56:17.447Z,6.27
2018-08-17T00:58:45.511Z,5.97
2018-08-17T01:01:13.632Z,7.67
2018-08-17T01:03:41.691Z,7.43
2018-08-17T01:06:09.750Z,7.90
2018-08-17T01:08:37.827Z,7.03
2018-08-17T01:11:06.212Z,6.93
2018-08-17T01:13:34.294Z,6.20
2018-08-17T01:16:02.667Z,6.40
2018-08-17T01:18:30.746Z,5.73
2018-08-17T01:20:58.810Z,6.13
2018-08-17T01:23:26.891Z,6.63
2018-08-17T01:25:55.052Z,6.30
2018-08-17T01:28:23.818Z,6.93
2018-08-17T01:30:51.891Z,5.63
2018-08-17T01:33:19.982Z,8.83
2018-08-17T01:35:48.080Z,7.10
2018-08-17T01:38:16.222Z,8.07
2018-08-17T01:40:44.571Z,7.20
2018-08-17T01:43:12.631Z,7.20
2018-08-17T01:45:40.698Z,5.97
2018-08-17T01:48:08.819Z,6.23
2018-08-17T01:50:36.903Z,5.97
2018-08-17T01:53:05.156Z,8.67
2018-08-17T01:55:33.227Z,6.37
2018-08-17T01:58:01.299Z,6.83
2018-08-17T02:00:29.471Z,7.17
2018-08-17T02:02:57.538Z,6.53
2018-08-17T02:05:25.919Z,5.97
2018-08-17T02:07:54.098Z,6.27
2018-08-17T02:10:22.175Z,7.17
2018-08-17T02:12:50.236Z,6.00
2018-08-17T02:15:18.306Z,5.90
2018-08-17T02:17:46.418Z,6.90
2018-08-17T02:20:14.494Z,6.37
2018-08-17T02:22:42.943Z,7.20
2018-08-17T02:25:11.083Z,5.93
2018-08-17T02:27:39.124Z,6.57
2018-08-17T02:30:07.385Z,6.30
2018-08-17T02:32:35.450Z,6.77
2018-08-17T02:35:03.779Z,5.87
2018-08-17T02:37:31.890Z,6.57
2018-08-17T02:40:00.015Z,6.93
2018-08-17T02:42:28.086Z,8.10
2018-08-17T02:44:56.220Z,8.87
2018-08-17T02:47:24.311Z,5.63
2018-08-17T02:49:52.390Z,6.07
2018-08-17T02:52:20.519Z,7.60
2018-08-17T02:54:48.584Z,7.90
2018-08-17T02:57:16.680Z,8.40
2018-08-17T02:59:44.780Z,6.00
2018-08-17T03:02:12.846Z,6.00
2018-08-17T03:04:40.918Z,8.23
2018-08-17T03:07:09.062Z,7.50
2018-08-17T03:09:37.171Z,7.90
2018-08-17T03:12:05.260Z,7.30
2018-08-17T03:14:33.425Z,7.27
2018-08-17T03:17:01.555Z,7.50
2018-08-17T03:19:29.662Z,5.80
2018-08-17T03:21:58.695Z,8.90
2018-08-17T03:24:26.779Z,7.43
2018-08-17T03:26:54.882Z,9.17
2018-08-17T03:29:23.072Z,8.70
2018-08-17T03:31:51.212Z,7.47
2018-08-17T03:34:19.625Z,8.20
2018-08-17T03:36:47.722Z,7.50
2018-08-17T03:39:15.831Z,7.17
2018-08-17T03:41:43.935Z,7.13
2018-08-17T03:44:11.998Z,8.30
2018-08-17T03:46:40.103Z,6.23
2018-08-17T03:49:08.214Z,6.40
2018-08-17T03:51:36.304Z,6.13
2018-08-17T03:54:04.674Z,7.47
2018-08-17T03:56:32.802Z,7.83
2018-08-17T03:59:00.900Z,6.83
2018-08-17T04:01:29.005Z,9.10
2018-08-17T04:03:57.370Z,6.43
2018-08-17T04:06:25.769Z,8.43
2018-08-17T04:08:53.864Z,7.20
2018-08-17T04:11:22.272Z,7.77
2018-08-17T04:13:50.403Z,7.30
2018-08-17T04:16:18.563Z,7.37
2018-08-17T04:18:51.766Z,6.50
2018-08-17T04:21:19.895Z,7.27
2018-08-17T04:23:47.986Z,6.97
2018-08-17T04:26:16.165Z,6.00
2018-08-17T04:28:44.286Z,8.60
2018-08-17T04:31:12.415Z,6.93
2018-08-17T04:33:40.513Z,7.57
2018-08-17T04:36:08.602Z,8.63
2018-08-17T04:38:36.820Z,6.23
2018-08-17T04:41:04.919Z,6.23
2018-08-17T04:43:33.016Z,10.83
2018-08-17T04:46:01.091Z,6.87
2018-08-17T04:48:29.182Z,7.43
2018-08-17T04:50:57.283Z,7.87
2018-08-17T04:53:25.370Z,10.63
2018-08-17T04:55:53.470Z,8.90
2018-08-17T04:58:21.740Z,7.60
2018-08-17T05:00:49.857Z,8.67
2018-08-17T05:03:17.983Z,7.20
2018-08-17T05:05:46.315Z,8.50
2018-08-17T05:08:14.391Z,10.40
2018-08-17T05:10:42.479Z,9.67
2018-08-17T05:13:10.596Z,8.13
2018-08-17T05:15:38.847Z,8.20
2018-08-17T05:18:07.130Z,10.47
2018-08-17T05:20:35.216Z,8.97
2018-08-17T05:23:03.317Z,12.47
2018-08-17T05:25:31.398Z,10.43
2018-08-17T05:27:59.510Z,7.93
2018-08-17T05:30:27.606Z,8.33
2018-08-17T05:32:55.699Z,9.47
2018-08-17T05:35:23.802Z,8.73
2018-08-17T05:37:51.888Z,9.97
2018-08-17T05:40:20.017Z,9.73
2018-08-17T05:42:48.398Z,8.47
2018-08-17T05:45:16.904Z,8.43
2018-08-17T05:47:44.998Z,8.73
2018-08-17T05:50:13.070Z,8.37
2018-08-17T05:52:41.166Z,10.97
2018-08-17T05:55:09.238Z,10.27
2018-08-17T05:57:37.357Z,10.43
2018-08-17T06:00:07.766Z,13.60
2018-08-17T06:02:35.918Z,9.70
2018-08-17T06:05:05.519Z,9.53
2018-08-17T06:07:33.619Z,10.53
2018-08-17T06:10:01.721Z,9.40
2018-08-17T06:12:29.828Z,9.13
2018-08-17T06:14:57.962Z,8.90
2018-08-17T06:17:26.499Z,8.20
2018-08-17T06:19:54.815Z,9.70
2018-08-17T06:22:22.891Z,6.33
2018-08-17T06:24:51.798Z,6.17
2018-08-17T06:27:20.170Z,7.03
2018-08-17T06:29:48.527Z,8.13
2018-08-17T06:32:16.653Z,5.67
2018-08-17T06:34:44.751Z,6.83
2018-08-17T06:37:13.020Z,6.00
2018-08-17T06:39:41.030Z,5.10
2018-08-17T06:42:09.148Z,8.20
2018-08-17T06:44:37.395Z,5.53
2018-08-17T06:47:05.722Z,7.10
2018-08-17T06:49:33.823Z,5.57
2018-08-17T06:52:02.144Z,7.43
2018-08-17T06:54:30.212Z,28.03
2018-08-17T06:56:58.341Z,6.73
2018-08-17T06:59:26.367Z,15.07
2018-08-17T07:01:54.444Z,11.50
2018-08-17T07:04:22.581Z,8.83
2018-08-17T07:06:50.708Z,7.87
2018-08-17T07:09:19.009Z,11.37
2018-08-17T07:11:46.930Z,12.43
2018-08-17T07:14:15.026Z,10.93
2018-08-17T07:16:43.174Z,8.23
2018-08-17T07:19:11.231Z,9.97
2018-08-17T07:21:39.334Z,9.63
2018-08-17T07:24:07.372Z,6.27
2018-08-17T07:26:35.447Z,7.67
2018-08-17T07:29:03.540Z,9.70
2018-08-17T07:31:31.611Z,6.43
2018-08-17T07:33:59.713Z,16.07
2018-08-17T07:36:27.797Z,11.50
2018-08-17T07:38:56.203Z,13.50
2018-08-17T07:41:24.294Z,12.03
2018-08-17T07:43:52.375Z,13.83
2018-08-17T07:46:20.454Z,11.87
2018-08-17T07:48:48.779Z,12.73
2018-08-17T07:51:16.847Z,7.57
2018-08-17T07:53:45.252Z,6.03
2018-08-17T07:56:13.362Z,9.43
2018-08-17T07:58:41.472Z,6.20
2018-08-17T08:01:09.559Z,4.90
2018-08-17T08:03:37.631Z,8.00
2018-08-17T08:06:06.162Z,5.50
2018-08-17T08:08:34.264Z,10.77
2018-08-17T08:11:02.378Z,7.40
2018-08-17T08:13:30.825Z,8.17
2018-08-17T08:15:58.911Z,8.57
2018-08-17T08:18:27.027Z,5.47
2018-08-17T08:20:55.096Z,6.93
2018-08-17T08:23:26.121Z,6.10
2018-08-17T08:25:54.538Z,4.20
2018-08-17T08:28:22.898Z,6.27
2018-08-17T08:30:51.283Z,6.77
2018-08-17T08:33:19.962Z,6.77
2018-08-17T08:35:48.516Z,3.87
2018-08-17T08:38:17.959Z,5.83
2018-08-17T08:40:46.626Z,5.43
2018-08-17T08:43:14.750Z,5.67
2018-08-17T08:45:42.856Z,5.07
2018-08-17T08:48:10.946Z,8.30
2018-08-17T08:50:39.219Z,5.80
2018-08-17T08:53:08.079Z,4.20
2018-08-17T08:55:36.177Z,4.90
2018-08-17T08:58:04.475Z,5.13
2018-08-17T09:00:32.563Z,4.53
2018-08-17T09:03:00.639Z,3.10
2018-08-17T09:05:28.759Z,5.27
2018-08-17T09:07:57.258Z,3.43
2018-08-17T09:10:25.340Z,4.37
2018-08-17T09:12:53.446Z,5.03
2018-08-17T09:15:21.535Z,3.00
2018-08-17T09:17:49.658Z,3.57
2018-08-17T09:20:18.289Z,4.57
2018-08-17T09:22:46.378Z,4.30
2018-08-17T09:25:14.479Z,5.27
2018-08-17T09:27:42.547Z,4.90
2018-08-17T09:30:12.853Z,6.33
2018-08-17T09:32:41.558Z,4.03
2018-08-17T09:35:10.766Z,4.63
2018-08-17T09:37:38.829Z,3.50
2018-08-17T09:40:08.073Z,4.60
2018-08-17T09:42:36.551Z,5.80
2018-08-17T09:45:05.207Z,3.33
2018-08-17T09:47:33.331Z,4.10
2018-08-17T09:50:01.428Z,3.37
2018-08-17T09:52:29.503Z,6.67
2018-08-17T09:54:57.583Z,3.43
2018-08-17T09:57:25.709Z,3.40
2018-08-17T09:59:53.966Z,3.97
2018-08-17T10:02:25.098Z,3.23
2018-08-17T10:04:58.587Z,4.10
2018-08-17T10:07:32.170Z,3.30
2018-08-17T10:10:05.716Z,2.60
2018-08-17T10:12:33.974Z,4.47
2018-08-17T10:15:02.039Z,5.00
2018-08-17T10:17:30.142Z,5.53
2018-08-17T10:19:58.223Z,3.13
2018-08-17T10:22:26.312Z,2.87
2018-08-17T10:24:59.291Z,3.33
2018-08-17T10:27:27.367Z,4.23
2018-08-17T10:29:55.464Z,3.63
2018-08-17T10:32:23.539Z,2.37
2018-08-17T10:34:51.611Z,8.93
2018-08-17T10:37:19.743Z,14.30
2018-08-17T10:39:47.848Z,15.97
2018-08-17T10:42:15.970Z,13.20
2018-08-17T10:44:44.054Z,13.90
2018-08-17T10:47:12.143Z,17.13
2018-08-17T10:49:40.239Z,18.30
2018-08-17T10:52:08.315Z,14.40
2018-08-17T10:54:36.423Z,9.97
2018-08-17T10:57:05.068Z,8.23
2018-08-17T10:59:33.170Z,5.63
2018-08-17T11:02:01.662Z,4.60
2018-08-17T11:04:29.759Z,3.87
2018-08-17T11:06:57.843Z,7.37
2018-08-17T11:09:25.911Z,4.53
2018-08-17T11:11:53.995Z,3.40
2018-08-17T11:14:22.103Z,3.40
2018-08-17T11:16:50.244Z,3.50
2018-08-17T11:19:18.316Z,3.23
2018-08-17T11:21:46.406Z,2.87
2018-08-17T11:24:14.622Z,6.53
2018-08-17T11:26:42.827Z,4.17
2018-08-17T11:29:10.935Z,4.33
2018-08-17T11:31:39.018Z,6.47
2018-08-17T11:34:07.130Z,4.90
2018-08-17T11:36:35.238Z,3.80
2018-08-17T11:39:05.059Z,3.90
2018-08-17T11:41:33.253Z,2.77
2018-08-17T11:44:04.475Z,2.53
2018-08-17T11:46:33.107Z,4.67
2018-08-17T11:49:01.518Z,8.13
2018-08-17T11:51:29.626Z,4.60
2018-08-17T11:53:57.769Z,3.03
2018-08-17T11:56:25.827Z,2.20
2018-08-17T11:58:53.894Z,3.70
2018-08-17T12:01:27.414Z,2.17
2018-08-17T12:03:55.790Z,3.03
2018-08-17T12:06:24.519Z,4.70
2018-08-17T12:08:52.614Z,3.57
2018-08-17T12:11:20.691Z,2.27
2018-08-17T12:13:48.775Z,4.03
2018-08-17T12:16:16.897Z,7.00
2018-08-17T12:18:45.003Z,2.47
2018-08-17T12:21:13.071Z,3.60
2018-08-17T12:23:41.395Z,5.33
2018-08-17T12:26:09.479Z,3.67
2018-08-17T12:28:37.567Z,6.70
2018-08-17T12:31:05.938Z,8.00
2018-08-17T12:33:34.418Z,5.12
2018-08-17T12:36:02.505Z,8.63
2018-08-17T12:38:30.603Z,8.10
2018-08-17T12:40:59.102Z,6.87
2018-08-17T12:43:30.639Z,3.97
2018-08-17T12:45:58.706Z,3.07
2018-08-17T12:48:26.790Z,7.10
2018-08-17T12:50:59.103Z,2.50
2018-08-17T12:53:27.203Z,3.87
2018-08-17T12:55:55.304Z,4.73
2018-08-17T12:58:23.379Z,1.90
2018-08-17T13:00:51.443Z,2.73
2018-08-17T13:03:19.531Z,3.77
2018-08-17T13:05:47.669Z,2.87
2018-08-17T13:08:15.735Z,4.47
2018-08-17T13:10:43.806Z,2.83
2018-08-17T13:13:11.911Z,3.73
2018-08-17T13:15:45.333Z,2.37
2018-08-17T13:18:17.688Z,3.00
2018-08-17T13:20:45.778Z,3.67
2018-08-17T13:23:13.884Z,1.97
2018-08-17T13:25:42.078Z,2.43
2018-08-17T13:28:10.438Z,2.47
2018-08-17T13:30:38.530Z,2.30
2018-08-17T13:33:06.635Z,2.60
2018-08-17T13:35:34.700Z,3.37
2018-08-17T13:38:02.791Z,2.63
2018-08-17T13:40:30.891Z,5.30
2018-08-17T13:42:59.209Z,3.87
2018-08-17T13:45:27.517Z,3.03
2018-08-17T13:47:55.877Z,2.90
2018-08-17T13:50:23.950Z,2.80
2018-08-17T13:52:52.039Z,3.13
2018-08-17T13:55:20.115Z,3.47
2018-08-17T13:57:48.250Z,4.07
2018-08-17T14:00:16.315Z,2.40
2018-08-17T14:02:44.391Z,2.60
2018-08-17T14:05:12.516Z,2.90
2018-08-17T14:07:40.610Z,2.80
2018-08-17T14:10:09.935Z,3.13
2018-08-17T14:12:38.595Z,2.33
2018-08-17T14:15:07.890Z,2.30
2018-08-17T14:17:36.487Z,2.07
2018-08-17T14:20:07.288Z,4.13
2018-08-17T14:22:35.755Z,2.77
2018-08-17T14:25:04.103Z,6.63
2018-08-17T14:27:32.187Z,5.10
2018-08-17T14:30:00.279Z,3.83
2018-08-17T14:32:28.517Z,6.27
2018-08-17T14:34:56.607Z,4.97
2018-08-17T14:37:24.702Z,3.20
2018-08-17T14:39:52.817Z,4.10
2018-08-17T14:42:20.906Z,5.20
2018-08-17T14:44:49.002Z,3.70
2018-08-17T14:47:17.090Z,8.57
2018-08-17T14:49:45.189Z,8.67
2018-08-17T14:52:13.519Z,7.97
2018-08-17T14:54:41.659Z,5.17
2018-08-17T14:57:09.771Z,8.30
2018-08-17T14:59:37.879Z,11.07
2018-08-17T15:02:06.006Z,10.90
2018-08-17T15:04:34.091Z,9.73
2018-08-17T15:07:02.522Z,6.07
2018-08-17T15:09:30.618Z,7.10
2018-08-17T15:11:58.716Z,5.00
2018-08-17T15:14:26.798Z,7.97
2018-08-17T15:16:54.932Z,5.43
2018-08-17T15:19:23.063Z,8.20
2018-08-17T15:21:51.171Z,4.23
2018-08-17T15:24:19.239Z,4.00
2018-08-17T15:26:47.458Z,5.40
2018-08-17T15:29:15.563Z,3.90
2018-08-17T15:31:43.631Z,7.63
2018-08-17T15:34:11.747Z,4.93
2018-08-17T15:36:39.847Z,4.17
2018-08-17T15:39:08.407Z,5.63
2018-08-17T15:41:41.507Z,6.00
2018-08-17T15:44:13.829Z,6.90
2018-08-17T15:46:41.914Z,9.10
2018-08-17T15:49:13.653Z,5.63
2018-08-17T15:51:41.720Z,4.50
2018-08-17T15:54:09.794Z,6.47
2018-08-17T15:56:37.898Z,3.23
2018-08-17T15:59:05.975Z,4.37
2018-08-17T16:01:34.234Z,6.63
2018-08-17T16:04:02.155Z,5.10
2018-08-17T16:06:30.256Z,7.13
2018-08-17T16:08:58.355Z,5.60
2018-08-17T16:11:26.450Z,5.63
2018-08-17T16:13:54.510Z,6.17
2018-08-17T16:16:22.625Z,6.23
2018-08-17T16:18:50.767Z,4.60
2018-08-17T16:21:18.873Z,4.27
2018-08-17T16:23:46.967Z,3.47
2018-08-17T16:26:15.055Z,4.40
2018-08-17T16:28:43.135Z,3.33
2018-08-17T16:31:11.238Z,7.10
2018-08-17T16:33:39.366Z,4.83
2018-08-17T16:36:07.487Z,4.80
2018-08-17T16:38:36.524Z,3.77
2018-08-17T16:41:04.610Z,7.57
2018-08-17T16:43:43.334Z,7.83
2018-08-17T16:46:11.824Z,5.00
2018-08-17T16:48:40.927Z,6.47
2018-08-17T16:51:09.302Z,6.13
2018-08-17T16:53:37.383Z,5.60
2018-08-17T16:56:05.496Z,9.30
2018-08-17T16:58:33.609Z,3.37
2018-08-17T17:01:01.910Z,8.20
2018-08-17T17:03:29.978Z,5.40
2018-08-17T17:06:01.081Z,5.97
2018-08-17T17:08:29.704Z,8.87
2018-08-17T17:10:58.039Z,8.47
2018-08-17T17:13:26.357Z,15.17
2018-08-17T17:15:54.435Z,6.90
2018-08-17T17:18:22.555Z,3.43
2018-08-17T17:20:50.720Z,4.73
2018-08-17T17:23:18.781Z,9.30
2018-08-17T17:25:46.831Z,8.77
2018-08-17T17:28:15.159Z,10.90
2018-08-17T17:30:51.527Z,9.10
2018-08-17T17:33:20.143Z,7.83
2018-08-17T17:35:48.269Z,7.80
2018-08-17T17:38:16.366Z,6.10
2018-08-17T17:40:44.438Z,5.13
2018-08-17T17:43:12.521Z,4.23
2018-08-17T17:45:40.983Z,6.73
2018-08-17T17:48:09.498Z,4.57
2018-08-17T17:50:37.915Z,6.13
2018-08-17T17:53:06.139Z,3.40
2018-08-17T17:55:40.768Z,7.37
2018-08-17T17:58:09.197Z,5.17
2018-08-17T18:00:37.238Z,3.23
2018-08-17T18:03:05.342Z,5.43
2018-08-17T18:05:33.415Z,4.10
2018-08-17T18:08:07.036Z,6.07
2018-08-17T18:10:35.114Z,5.53
2018-08-17T18:13:03.393Z,4.93
2018-08-17T18:15:31.433Z,6.37
2018-08-17T18:17:59.531Z,6.70
2018-08-17T18:20:27.619Z,3.83
2018-08-17T18:22:55.733Z,2.63
2018-08-17T18:25:23.802Z,4.40
2018-08-17T18:27:51.882Z,3.23
2018-08-17T18:30:19.979Z,7.60
2018-08-17T18:32:48.083Z,3.70
2018-08-17T18:35:16.198Z,5.50
2018-08-17T18:37:44.522Z,6.77
2018-08-17T18:40:12.723Z,3.77
2018-08-17T18:42:40.800Z,4.77
2018-08-17T18:45:09.083Z,3.17
2018-08-17T18:47:37.709Z,4.80
2018-08-17T18:50:06.686Z,4.97
2018-08-17T18:52:34.926Z,5.80
2018-08-17T18:55:03.220Z,5.77
2018-08-17T18:57:31.298Z,8.57
2018-08-17T18:59:59.435Z,5.43
2018-08-17T19:02:27.556Z,4.60
2018-08-17T19:04:55.645Z,3.67
2018-08-17T19:07:23.726Z,3.60
2018-08-17T19:09:51.863Z,8.07
2018-08-17T19:12:19.942Z,5.27
2018-08-17T19:14:49.296Z,5.60
2018-08-17T19:17:22.946Z,9.03
2018-08-17T19:19:52.095Z,8.77
2018-08-17T19:22:20.796Z,3.70
2018-08-17T19:24:49.695Z,5.30
2018-08-17T19:27:26.078Z,3.17
2018-08-17T19:29:54.429Z,5.67
2018-08-17T19:32:22.778Z,4.63
2018-08-17T19:34:50.819Z,6.60
2018-08-17T19:37:18.895Z,4.57
2018-08-17T19:39:47.817Z,2.87
2018-08-17T19:42:16.392Z,5.33
2018-08-17T19:44:44.835Z,4.43
2018-08-17T19:47:12.933Z,4.70
2018-08-17T19:49:41.038Z,4.00
2018-08-17T19:52:09.110Z,3.70
2018-08-17T19:54:37.193Z,5.77
2018-08-17T19:57:05.596Z,4.83
2018-08-17T19:59:33.703Z,7.13
2018-08-17T20:02:01.803Z,4.03
2018-08-17T20:04:30.659Z,4.27
2018-08-17T20:06:59.507Z,5.37
2018-08-17T20:09:27.821Z,5.57
2018-08-17T20:11:55.926Z,2.90
2018-08-17T20:14:24.020Z,3.60
2018-08-17T20:16:52.131Z,3.77
2018-08-17T20:19:20.203Z,3.50
2018-08-17T20:21:48.311Z,6.10
2018-08-17T20:24:16.399Z,3.50
2018-08-17T20:26:44.636Z,7.07
2018-08-17T20:29:12.578Z,4.63
2018-08-17T20:31:43.355Z,8.80
2018-08-17T20:34:11.453Z,5.53
2018-08-17T20:36:39.543Z,3.73
2018-08-17T20:39:10.646Z,4.87
2018-08-17T20:41:38.762Z,6.27
2018-08-17T20:44:07.432Z,4.37
2018-08-17T20:46:35.722Z,6.40
2018-08-17T20:49:04.088Z,4.43
2018-08-17T20:51:32.167Z,5.47
2018-08-17T20:54:01.608Z,4.87
2018-08-17T20:56:29.802Z,4.50
2018-08-17T20:58:57.878Z,4.63
2018-08-17T21:01:25.960Z,5.33
2018-08-17T21:03:54.382Z,1.77
2018-08-17T21:06:22.491Z,4.03
2018-08-17T21:08:50.582Z,5.97
2018-08-17T21:11:18.713Z,4.37
2018-08-17T21:13:47.177Z,3.93
2018-08-17T21:16:15.279Z,6.83
2018-08-17T21:18:43.349Z,5.83
2018-08-17T21:21:11.455Z,3.73
2018-08-17T21:23:39.523Z,2.83
2018-08-17T21:26:08.302Z,5.70
2018-08-17T21:28:36.378Z,2.90
2018-08-17T21:31:04.451Z,5.37
2018-08-17T21:33:32.543Z,3.17
2018-08-17T21:36:00.624Z,2.20
2018-08-17T21:38:28.730Z,3.40
2018-08-17T21:40:56.824Z,4.03
2018-08-17T21:43:24.929Z,2.73
2018-08-17T21:45:57.439Z,3.47
2018-08-17T21:48:27.745Z,4.40
2018-08-17T21:50:56.111Z,2.80
2018-08-17T21:53:24.235Z,3.67
2018-08-17T21:55:52.359Z,1.93
2018-08-17T21:58:20.434Z,3.97
2018-08-17T22:00:48.565Z,2.93
2018-08-17T22:03:26.939Z,4.17
2018-08-17T22:05:55.038Z,5.93
2018-08-17T22:08:23.124Z,4.23
2018-08-17T22:10:51.195Z,5.23
2018-08-17T22:13:31.609Z,3.70
2018-08-17T22:16:00.178Z,5.67
2018-08-17T22:18:28.661Z,3.53
2018-08-17T22:20:56.743Z,2.07
2018-08-17T22:23:25.014Z,3.27
2018-08-17T22:25:53.402Z,2.77
2018-08-17T22:28:21.518Z,5.47
2018-08-17T22:30:49.639Z,6.17
2018-08-17T22:33:18.042Z,6.53
2018-08-17T22:35:46.214Z,4.17
2018-08-17T22:38:14.271Z,8.17
2018-08-17T22:40:42.414Z,6.77
2018-08-17T22:43:10.527Z,5.47
2018-08-17T22:45:38.635Z,3.27
2018-08-17T22:48:06.783Z,5.63
2018-08-17T22:50:34.826Z,4.43
2018-08-17T22:53:03.201Z,4.80
2018-08-17T22:55:31.279Z,3.03
2018-08-17T22:57:59.913Z,5.43
2018-08-17T23:00:29.223Z,5.73
2018-08-17T23:02:58.875Z,2.80
2018-08-17T23:05:28.771Z,4.27
2018-08-17T23:07:57.135Z,4.13
2018-08-17T23:10:26.155Z,4.77
2018-08-17T23:12:54.806Z,6.43
2018-08-17T23:15:22.906Z,5.70
2018-08-17T23:17:53.098Z,3.77
2018-08-17T23:20:27.015Z,4.93
2018-08-17T23:22:56.238Z,5.73
2018-08-17T23:25:24.349Z,7.07
2018-08-17T23:27:52.631Z,3.63
2018-08-17T23:30:20.723Z,5.90
2018-08-17T23:32:49.006Z,5.43
2018-08-17T23:35:17.118Z,4.67
2018-08-17T23:37:45.275Z,5.13
2018-08-17T23:40:13.669Z,4.50
2018-08-17T23:42:41.766Z,4.70
2018-08-17T23:45:13.338Z,5.77
2018-08-17T23:47:41.493Z,4.47
2018-08-17T23:50:10.902Z,5.47
2018-08-17T23:52:38.993Z,6.00
2018-08-17T23:55:08.535Z,3.13
2018-08-17T23:57:36.626Z,7.10
